< < Back
Terminal Aerodrome Forecast


Current Version              Previous Versions:   1  2  3  4  5  6  7  8  9  

Terminal Aerodrome Forecast

218
FTUS44 KMRX 252332
TAFCHA
TAF
KCHA 252332Z 2600/2624 03008KT P6SM SCT200
     FM260200 VRB03KT P6SM FEW200
     FM261700 16005KT P6SM SCT050=

Latest METAR

606
SAUS80 KWBC 261500 RRC
MTRCHA
METAR KCHA 261453Z 14008KT 10SM SCT080 SCT200 31/19 A3017 RMK AO2 SLP206
T03060194 50004


USA.gov is the U.S. government's official web portal to all federal, state and local government web resources and services.